createdAt,value
2022-12-29T04:04:31.821Z,192.30
2022-12-29T04:07:41.614Z,131.70
2022-12-29T04:10:51.982Z,93.97
2022-12-29T04:14:04.549Z,110.47
2022-12-29T04:17:16.409Z,100.40
2022-12-29T04:20:40.864Z,189.80
2022-12-29T04:23:51.197Z,65.00
2022-12-29T04:27:00.993Z,190.37
2022-12-29T04:30:16.684Z,77.77
2022-12-29T04:33:40.151Z,55.50
2022-12-29T04:36:52.016Z,55.63
2022-12-29T04:40:01.835Z,145.43
2022-12-29T04:43:13.547Z,52.13
2022-12-29T04:46:41.878Z,60.07
2022-12-29T04:49:57.786Z,62.30
2022-12-29T04:53:20.833Z,68.43
2022-12-29T04:56:30.706Z,59.13
2022-12-29T04:59:41.135Z,66.33
2022-12-29T05:02:52.098Z,92.83
2022-12-29T05:06:02.153Z,64.90
2022-12-29T05:09:13.204Z,51.20
2022-12-29T05:12:23.057Z,47.30
2022-12-29T05:15:41.080Z,138.43
2022-12-29T05:18:50.840Z,82.20
2022-12-29T05:22:00.761Z,204.67
2022-12-29T05:25:12.529Z,176.60
2022-12-29T05:28:34.963Z,257.20
2022-12-29T05:31:54.750Z,294.30
2022-12-29T05:35:05.192Z,251.30
2022-12-29T05:38:17.162Z,258.23
2022-12-29T05:41:29.827Z,304.30
2022-12-29T05:44:54.907Z,303.87
2022-12-29T05:48:24.397Z,275.47
2022-12-29T05:51:53.363Z,257.00
2022-12-29T05:55:03.350Z,193.13
2022-12-29T05:58:16.841Z,272.07
2022-12-29T07:18:19.851Z,164.43
2022-12-29T07:21:29.667Z,122.00
2022-12-29T07:24:39.722Z,155.97
2022-12-29T07:27:49.745Z,244.43
2022-12-29T07:31:01.087Z,219.17
2022-12-29T07:34:12.279Z,143.03
2022-12-29T07:37:22.062Z,248.40
2022-12-29T07:40:31.992Z,180.87
2022-12-29T07:43:41.738Z,251.93
2022-12-29T07:47:05.027Z,306.77
2022-12-29T07:50:16.169Z,329.60
2022-12-29T07:53:25.904Z,328.87
2022-12-29T07:56:36.243Z,263.60
2022-12-29T07:59:45.952Z,302.03
2022-12-29T08:02:55.638Z,306.00
2022-12-29T08:06:07.169Z,313.40
2022-12-29T08:09:22.412Z,294.27
2022-12-29T08:12:32.686Z,231.13
2022-12-29T08:15:42.541Z,171.93
2022-12-29T08:18:52.292Z,185.17
2022-12-29T08:22:03.302Z,171.80
2022-12-29T08:25:13.156Z,171.70
2022-12-29T08:28:22.931Z,192.93
2022-12-29T08:31:33.398Z,161.27
2022-12-29T08:34:43.289Z,227.17
2022-12-29T08:37:54.178Z,203.80
2022-12-29T08:41:03.860Z,182.37
2022-12-29T08:44:14.175Z,166.47
2022-12-29T08:47:23.815Z,168.87
2022-12-29T08:50:33.535Z,158.03
2022-12-29T08:53:44.969Z,172.07
2022-12-29T08:56:54.802Z,203.57
2022-12-29T09:00:08.892Z,170.27
2022-12-29T09:03:37.519Z,168.57
2022-12-29T09:06:48.275Z,163.13
2022-12-29T09:09:59.280Z,173.80
2022-12-29T09:13:09.015Z,175.40
2022-12-29T09:16:19.253Z,154.73
2022-12-29T09:19:29.043Z,160.63
2022-12-29T09:22:39.243Z,167.20
2022-12-29T09:25:50.608Z,143.47
2022-12-29T09:29:00.306Z,154.70
2022-12-29T09:32:13.912Z,173.70
2022-12-29T09:35:26.997Z,171.60
2022-12-29T09:38:36.752Z,181.33
2022-12-29T09:41:54.451Z,171.30
2022-12-29T09:45:15.761Z,176.07
2022-12-29T09:48:29.586Z,174.37
2022-12-29T09:51:42.138Z,232.17
2022-12-29T09:55:02.959Z,177.03
2022-12-29T09:58:26.275Z,339.47
2022-12-29T10:01:43.520Z,350.50
2022-12-29T10:04:53.887Z,227.47
2022-12-29T10:08:17.913Z,266.33
2022-12-29T10:11:43.542Z,296.03
2022-12-29T10:15:04.788Z,322.50
2022-12-29T10:18:29.747Z,314.27
2022-12-29T10:21:51.362Z,310.77
2022-12-29T10:25:05.951Z,329.90
2022-12-29T10:28:22.680Z,318.53
2022-12-29T10:31:39.371Z,334.07
2022-12-29T10:34:53.703Z,302.33
2022-12-29T10:38:13.246Z,300.30
2022-12-29T10:41:28.538Z,278.97
2022-12-29T10:44:38.770Z,254.17
2022-12-29T10:47:55.838Z,252.27
2022-12-29T10:51:08.265Z,249.33
2022-12-29T10:54:23.345Z,164.03
2022-12-29T10:57:36.181Z,167.37
2022-12-29T11:00:51.935Z,159.87
2022-12-29T11:04:06.001Z,152.43
2022-12-29T11:07:25.038Z,162.43
2022-12-29T11:10:40.743Z,172.23
2022-12-29T11:13:52.698Z,175.93
2022-12-29T11:17:04.390Z,190.03
2022-12-29T11:24:00.799Z,221.67
2022-12-29T11:27:16.812Z,343.80
2022-12-29T11:30:29.674Z,372.40
2022-12-29T11:33:40.867Z,225.00
2022-12-29T11:36:52.613Z,160.43
2022-12-29T11:40:09.148Z,177.37
2022-12-29T11:43:26.294Z,122.93
2022-12-29T11:46:39.629Z,124.10
2022-12-29T11:49:52.662Z,155.30
2022-12-29T11:53:06.014Z,199.63
2022-12-29T11:56:20.575Z,195.27
2022-12-29T11:59:42.322Z,294.73
2022-12-29T12:02:58.788Z,291.90
2022-12-29T12:06:14.813Z,210.27
2022-12-29T12:09:29.300Z,155.20
2022-12-29T12:12:46.817Z,153.73
2022-12-29T12:16:04.108Z,128.77
2022-12-29T12:19:22.113Z,142.87
2022-12-29T12:22:37.500Z,179.80
2022-12-29T12:25:55.099Z,137.73
2022-12-29T12:29:14.098Z,185.40
2022-12-29T12:32:31.045Z,181.87
2022-12-29T12:35:46.783Z,177.13
2022-12-29T12:39:01.369Z,168.50
2022-12-29T12:42:26.000Z,185.43
2022-12-29T12:45:47.900Z,122.10
2022-12-29T12:49:18.144Z,154.70
2022-12-29T12:52:36.111Z,76.57
2022-12-29T12:55:58.223Z,84.37
2022-12-29T12:59:19.040Z,68.77
2022-12-29T13:02:39.489Z,198.03
2022-12-29T13:06:05.015Z,65.80
2022-12-29T13:09:34.518Z,63.77
2022-12-29T13:12:53.924Z,71.10
2022-12-29T13:16:14.741Z,75.93
2022-12-29T13:19:32.692Z,70.33
2022-12-29T13:22:49.971Z,78.50
2022-12-29T13:26:08.872Z,72.53
2022-12-29T13:29:25.072Z,102.33
2022-12-29T13:32:49.559Z,73.57
2022-12-29T13:36:07.307Z,74.40
2022-12-29T13:39:21.888Z,68.17
2022-12-29T13:42:31.823Z,68.53
2022-12-29T13:45:42.626Z,75.93
2022-12-29T13:48:56.011Z,91.07
2022-12-29T13:52:15.308Z,102.60
2022-12-29T13:55:32.093Z,76.10
2022-12-29T13:58:52.215Z,66.53
2022-12-29T14:02:11.985Z,85.13
2022-12-29T14:05:31.269Z,73.60
2022-12-29T14:08:43.193Z,97.93
2022-12-29T14:11:52.870Z,69.83
2022-12-29T14:15:09.617Z,76.77
2022-12-29T14:18:28.997Z,78.73
2022-12-29T14:21:39.605Z,78.23
2022-12-29T14:24:50.955Z,80.53
2022-12-29T14:28:00.728Z,71.40
2022-12-29T14:31:42.191Z,70.43
2022-12-29T14:34:53.063Z,77.53
2022-12-29T14:38:10.344Z,80.73
2022-12-29T14:41:29.430Z,86.43
2022-12-29T14:44:49.435Z,82.63
2022-12-29T14:48:00.280Z,88.30
2022-12-29T14:51:27.045Z,85.40
2022-12-29T14:54:46.279Z,89.73
2022-12-29T14:58:03.295Z,99.17
2022-12-29T15:01:22.006Z,102.23
2022-12-29T15:04:34.614Z,80.50
2022-12-29T15:07:44.457Z,94.83
2022-12-29T15:10:58.559Z,95.07
2022-12-29T15:14:31.329Z,115.37
2022-12-29T15:17:41.076Z,107.33
2022-12-29T15:20:53.828Z,97.37
2022-12-29T15:24:05.131Z,97.17
2022-12-29T15:27:17.246Z,100.97
2022-12-29T15:30:28.318Z,132.50
2022-12-29T15:33:42.679Z,103.47
2022-12-29T15:36:53.314Z,101.70
2022-12-29T15:40:03.688Z,95.53
2022-12-29T15:43:25.565Z,112.63
2022-12-29T15:46:37.833Z,91.93
2022-12-29T15:49:51.225Z,132.23
2022-12-29T15:53:02.892Z,108.30
2022-12-29T15:56:13.100Z,116.30
2022-12-29T15:59:27.159Z,155.63
2022-12-29T16:02:39.035Z,155.30
2022-12-29T16:05:54.405Z,177.13
2022-12-29T16:09:07.702Z,199.50
2022-12-29T16:12:22.410Z,230.30
2022-12-29T16:15:32.660Z,225.43
2022-12-29T16:18:43.860Z,238.63
2022-12-29T16:21:54.254Z,202.93
2022-12-29T16:25:07.351Z,244.70
2022-12-29T16:28:22.150Z,237.43
2022-12-29T16:31:37.311Z,254.60
2022-12-29T16:34:48.829Z,239.80
2022-12-29T16:38:15.936Z,253.17
2022-12-29T16:41:31.715Z,164.17
2022-12-29T16:44:41.589Z,166.13
2022-12-29T16:48:18.956Z,166.33
2022-12-29T16:51:35.972Z,147.70
2022-12-29T16:54:52.424Z,143.63
2022-12-29T16:58:02.844Z,142.13
2022-12-29T17:01:15.879Z,114.57
2022-12-29T17:04:25.731Z,141.50
2022-12-29T17:07:42.087Z,157.33
2022-12-29T17:11:04.851Z,127.87
2022-12-29T17:14:22.277Z,141.67
2022-12-29T17:17:35.270Z,119.47
2022-12-29T17:20:45.009Z,146.53
2022-12-29T17:23:55.889Z,159.10
2022-12-29T17:27:05.894Z,141.43
2022-12-29T17:30:17.706Z,172.20
2022-12-29T17:33:38.457Z,159.60
2022-12-29T17:36:48.367Z,126.30
2022-12-29T17:39:59.565Z,137.80
2022-12-29T17:43:14.274Z,114.33
2022-12-29T17:46:23.976Z,135.47
2022-12-29T17:49:34.029Z,176.30
2022-12-29T17:52:45.115Z,156.87
2022-12-29T17:55:56.476Z,168.30
2022-12-29T17:59:14.193Z,151.37
2022-12-29T18:02:27.791Z,258.57
2022-12-29T18:05:37.655Z,168.33
2022-12-29T18:08:47.776Z,154.97
2022-12-29T18:11:58.757Z,162.80
2022-12-29T18:15:18.349Z,175.13
2022-12-29T18:18:28.872Z,179.60
2022-12-29T18:21:45.821Z,223.70
2022-12-29T18:24:56.115Z,176.53
2022-12-29T18:28:07.298Z,198.17
2022-12-29T18:31:21.028Z,190.67
2022-12-29T18:34:30.849Z,188.40
2022-12-29T18:37:40.626Z,241.23
2022-12-29T18:40:50.850Z,282.90
2022-12-29T18:44:01.925Z,278.07
2022-12-29T18:47:11.854Z,294.97
2022-12-29T18:50:21.697Z,306.40
2022-12-29T18:53:32.788Z,362.67
2022-12-29T18:56:42.488Z,319.63
2022-12-29T18:59:53.530Z,277.53
2022-12-29T19:03:03.398Z,891.83
2022-12-29T19:06:13.064Z,221.03
2022-12-29T19:09:22.810Z,1999.90
2022-12-29T19:12:32.589Z,149.23
2022-12-29T19:15:44.174Z,1999.90
2022-12-29T19:19:08.276Z,1999.90
2022-12-29T19:22:19.252Z,1999.90
2022-12-29T19:25:29.656Z,1999.90
2022-12-29T19:28:39.352Z,1999.90
2022-12-29T19:31:50.376Z,1999.90
2022-12-29T19:35:00.160Z,1999.90
2022-12-29T19:38:12.801Z,1999.90
2022-12-29T19:41:22.679Z,1999.90
2022-12-29T19:44:32.354Z,1999.90
2022-12-29T19:47:43.291Z,1999.90
2022-12-29T19:50:52.958Z,1999.90
2022-12-29T19:54:02.653Z,1999.90
2022-12-29T19:57:12.383Z,1999.90
2022-12-29T20:00:22.149Z,1999.90
2022-12-29T20:03:33.112Z,1999.90
2022-12-29T20:06:42.837Z,1999.90
2022-12-29T20:09:52.889Z,1999.90
2022-12-29T20:13:04.442Z,713.43
2022-12-29T20:16:15.885Z,1999.90
2022-12-29T20:19:27.047Z,1999.90
2022-12-29T20:22:36.810Z,1999.90
2022-12-29T20:25:47.632Z,1999.90
2022-12-29T20:28:58.687Z,1999.90
2022-12-29T20:32:09.986Z,1999.90
2022-12-29T20:35:20.994Z,1999.90
2022-12-29T20:38:30.680Z,1999.90
2022-12-29T20:41:40.365Z,1999.90
2022-12-29T20:44:50.803Z,1999.90
2022-12-29T20:48:00.471Z,1999.90
2022-12-29T20:51:11.554Z,1999.90
2022-12-29T20:54:21.432Z,132.90
2022-12-29T20:57:44.607Z,124.80
